Time;durP1;ratioP1;P1;durP2;ratioP2;P2;SDS_P1;SDS_P2;PMS_P1;PMS_P2;Temp;Humidity;BMP_temperature;BMP_pressure;BME280_temperature;BME280_humidity;BME280_pressure;Samples;Min_cycle;Max_cycle;Signal;HPM_P1;HPM_P2
2023/11/07 00:00:06;;;;;;;13.43;6.15;;;9.10;99.90;;;;;;5074871;28;20041;-80
2023/11/07 00:02:33;;;;;;;13.13;6.88;;;9.00;99.90;;;;;;5074950;28;20455;-79
2023/11/07 00:04:59;;;;;;;15.90;6.07;;;9.10;99.90;;;;;;5075618;28;20040;-79
2023/11/07 00:07:25;;;;;;;15.07;5.97;;;9.00;99.90;;;;;;5058914;28;20395;-79
2023/11/07 00:09:51;;;;;;;20.30;6.70;;;9.00;99.90;;;;;;5092943;28;20040;-79
2023/11/07 00:12:18;;;;;;;15.90;5.93;;;9.00;99.90;;;;;;5075627;28;20395;-80
2023/11/07 00:14:44;;;;;;;11.00;5.13;;;8.90;99.90;;;;;;5076103;28;20048;-80
2023/11/07 00:17:10;;;;;;;10.50;5.32;;;9.00;99.90;;;;;;5074812;28;20400;-79
2023/11/07 00:19:36;;;;;;;12.20;5.25;;;8.90;99.90;;;;;;5075111;28;20069;-80
2023/11/07 00:22:02;;;;;;;11.40;5.30;;;9.00;99.90;;;;;;5074509;28;20040;-80
2023/11/07 00:24:28;;;;;;;13.55;5.93;;;8.90;99.90;;;;;;5058546;28;20043;-79
2023/11/07 00:26:54;;;;;;;11.13;4.82;;;8.90;99.90;;;;;;5058624;28;20040;-79
2023/11/07 00:29:21;;;;;;;15.23;5.70;;;8.90;99.90;;;;;;5074945;28;20044;-79
2023/11/07 00:31:47;;;;;;;11.32;5.63;;;8.90;99.90;;;;;;5057951;28;20515;-79
2023/11/07 00:34:16;;;;;;;14.48;5.72;;;8.90;99.90;;;;;;5058419;28;20040;-79
2023/11/07 00:36:42;;;;;;;13.73;5.68;;;8.90;99.90;;;;;;5074895;28;20086;-79
2023/11/07 00:39:08;;;;;;;12.52;5.57;;;8.80;99.90;;;;;;5058301;28;20442;-79
2023/11/07 00:41:34;;;;;;;21.13;6.10;;;8.80;99.90;;;;;;5092908;28;20165;-79
2023/11/07 00:44:01;;;;;;;15.63;6.57;;;8.80;99.90;;;;;;5094147;28;20040;-79
2023/11/07 00:46:27;;;;;;;14.38;5.90;;;8.80;99.90;;;;;;5077877;28;20044;-79
2023/11/07 00:48:53;;;;;;;14.23;5.85;;;8.80;99.90;;;;;;5079026;28;20036;-79
2023/11/07 00:51:18;;;;;;;13.10;6.05;;;8.80;99.90;;;;;;5063948;28;20238;-79
2023/11/07 00:53:44;;;;;;;17.42;6.30;;;8.80;99.90;;;;;;5080479;28;20418;-80
2023/11/07 00:56:09;;;;;;;13.60;6.45;;;8.80;99.90;;;;;;5080104;28;20050;-79
2023/11/07 00:58:35;;;;;;;15.90;5.82;;;8.80;99.90;;;;;;5062232;28;20411;-79
2023/11/07 01:01:01;;;;;;;15.18;6.88;;;8.70;99.90;;;;;;5079958;28;20043;-79
2023/11/07 01:03:27;;;;;;;13.20;6.75;;;8.70;99.90;;;;;;5080802;28;20035;-79
2023/11/07 01:05:53;;;;;;;18.95;7.63;;;8.80;99.90;;;;;;5078668;28;20166;-80
2023/11/07 01:08:19;;;;;;;21.45;8.18;;;8.70;99.90;;;;;;5076970;28;20036;-80
2023/11/07 01:10:45;;;;;;;17.50;7.85;;;8.80;99.90;;;;;;5074916;28;20047;-79
2023/11/07 01:13:11;;;;;;;19.85;9.25;;;8.70;99.90;;;;;;5092960;28;20040;-80
2023/11/07 01:15:37;;;;;;;25.50;8.45;;;8.70;99.90;;;;;;5057779;28;20051;-79
2023/11/07 01:18:06;;;;;;;18.48;9.95;;;8.70;99.90;;;;;;5074411;28;20036;-79
2023/11/07 01:20:33;;;;;;;16.80;9.00;;;8.70;99.90;;;;;;5094220;28;20050;-79
2023/11/07 01:22:58;;;;;;;16.75;9.30;;;8.70;99.90;;;;;;5078146;28;20039;-80
2023/11/07 01:25:24;;;;;;;20.85;9.55;;;8.80;99.90;;;;;;5096213;28;20127;-79
2023/11/07 01:27:52;;;;;;;21.17;10.65;;;8.80;99.90;;;;;;5096314;28;20039;-79
2023/11/07 01:30:17;;;;;;;24.33;10.82;;;8.80;99.90;;;;;;5078057;28;20389;-80
2023/11/07 01:32:43;;;;;;;19.80;11.63;;;8.80;99.90;;;;;;5078209;28;20039;-80
2023/11/07 01:35:11;;;;;;;24.23;12.27;;;8.90;99.90;;;;;;5061681;28;20071;-80
2023/11/07 01:37:37;;;;;;;21.85;13.20;;;8.80;99.90;;;;;;5077676;28;20407;-80
2023/11/07 01:40:04;;;;;;;23.90;12.15;;;8.80;99.90;;;;;;5077708;28;20044;-80
2023/11/07 01:42:30;;;;;;;24.60;12.77;;;8.90;99.90;;;;;;5060755;28;20050;-79
2023/11/07 01:44:55;;;;;;;25.27;11.68;;;9.00;99.90;;;;;;5077834;28;20032;-79
2023/11/07 01:47:25;;;;;;;27.13;12.35;;;8.90;99.90;;;;;;5095408;28;20114;-79
2023/11/07 01:49:51;;;;;;;19.52;12.43;;;8.90;99.90;;;;;;5060623;28;20043;-79
2023/11/07 01:52:18;;;;;;;23.00;12.32;;;8.90;99.90;;;;;;5077774;28;20039;-79
2023/11/07 01:54:45;;;;;;;22.65;13.40;;;8.90;99.90;;;;;;5060588;28;20071;-79
2023/11/07 01:57:12;;;;;;;25.25;13.85;;;8.90;99.90;;;;;;5077770;28;20039;-80
2023/11/07 01:59:39;;;;;;;30.23;15.18;;;9.00;99.90;;;;;;5095757;28;20503;-79
2023/11/07 02:02:13;;;;;;;22.10;13.68;;;9.00;99.90;;;;;;5077232;28;20040;-80
2023/11/07 02:04:38;;;;;;;;;;;9.10;99.90;;;;;;5096585;28;20043;-79
2023/11/07 02:07:04;;;;;;;25.20;14.55;;;9.10;99.90;;;;;;5095523;28;19916;-79
2023/11/07 02:09:30;;;;;;;27.15;14.50;;;9.10;99.90;;;;;;5076936;28;20044;-79
2023/11/07 02:11:56;;;;;;;29.30;15.32;;;9.20;99.90;;;;;;5095364;28;20415;-80
2023/11/07 02:14:28;;;;;;;25.05;15.32;;;9.20;99.90;;;;;;5096178;28;20032;-80
2023/11/07 02:16:54;;;;;;;24.92;16.05;;;9.30;99.90;;;;;;5095524;28;20044;-80
2023/11/07 02:19:20;;;;;;;25.73;14.68;;;9.30;99.90;;;;;;5077777;28;20131;-80
2023/11/07 02:21:46;;;;;;;25.92;15.07;;;9.30;99.90;;;;;;5077974;28;20495;-81
2023/11/07 02:24:12;;;;;;;27.45;14.88;;;9.30;99.90;;;;;;5078260;28;20047;-80
2023/11/07 02:26:38;;;;;;;21.80;14.55;;;9.30;99.90;;;;;;5077905;28;20384;-80
2023/11/07 02:29:03;;;;;;;30.63;13.38;;;9.40;99.90;;;;;;5079823;28;20495;-80
2023/11/07 02:31:29;;;;;;;27.10;14.20;;;9.30;99.90;;;;;;5078821;28;20047;-80
2023/11/07 02:33:54;;;;;;;23.42;13.50;;;9.40;99.90;;;;;;5079562;28;20044;-79
2023/11/07 02:36:20;;;;;;;22.77;13.35;;;9.40;99.90;;;;;;5079601;28;20074;-80
2023/11/07 02:38:46;;;;;;;22.85;12.13;;;9.30;99.90;;;;;;5095568;28;20119;-80
2023/11/07 02:41:11;;;;;;;22.95;11.45;;;9.40;99.90;;;;;;5077622;28;20070;-80
2023/11/07 02:43:37;;;;;;;30.60;11.43;;;9.40;99.90;;;;;;5078159;28;20090;-79
2023/11/07 02:46:02;;;;;;;21.55;10.32;;;9.30;99.90;;;;;;5079519;28;20475;-79
2023/11/07 02:48:28;;;;;;;19.67;11.35;;;9.30;99.90;;;;;;5078924;28;20089;-79
2023/11/07 02:50:55;;;;;;;20.63;10.52;;;9.30;99.90;;;;;;5061372;28;20514;-79
2023/11/07 02:53:21;;;;;;;25.05;9.45;;;9.10;99.90;;;;;;5060042;28;20189;-79
2023/11/07 02:55:46;;;;;;;18.67;9.85;;;9.20;99.90;;;;;;5076466;28;20543;-79
2023/11/07 02:58:13;;;;;;;18.55;9.85;;;9.20;99.90;;;;;;5086868;22;20047;-72
2023/11/07 03:00:39;;;;;;;20.23;9.85;;;9.20;99.90;;;;;;5034809;28;20419;-72
2023/11/07 03:03:05;;;;;;;15.57;9.13;;;9.20;99.90;;;;;;5034339;28;20037;-72
2023/11/07 03:05:30;;;;;;;19.83;9.05;;;9.10;99.90;;;;;;5052184;28;20467;-71
2023/11/07 03:07:57;;;;;;;17.73;9.10;;;9.20;99.90;;;;;;5052480;28;20037;-71
2023/11/07 03:10:23;;;;;;;14.60;8.80;;;9.10;99.90;;;;;;5052291;28;20037;-72
2023/11/07 03:12:49;;;;;;;15.98;8.57;;;9.10;99.90;;;;;;5034451;28;20116;-71
2023/11/07 03:15:18;;;;;;;18.50;8.90;;;9.10;99.90;;;;;;5034582;28;20121;-71
2023/11/07 03:17:44;;;;;;;20.90;8.60;;;9.20;99.90;;;;;;5052253;28;20570;-72
2023/11/07 03:20:10;;;;;;;16.08;9.43;;;9.10;99.90;;;;;;5052229;28;20244;-72
2023/11/07 03:22:36;;;;;;;15.55;8.85;;;9.10;99.90;;;;;;5052193;28;20103;-71
2023/11/07 03:25:02;;;;;;;24.15;8.88;;;9.10;99.90;;;;;;5034095;28;20512;-72
2023/11/07 03:27:27;;;;;;;22.55;9.23;;;9.10;99.90;;;;;;5034406;28;20041;-72
2023/11/07 03:29:53;;;;;;;19.08;9.18;;;9.10;99.90;;;;;;5034276;28;20041;-72
2023/11/07 03:32:19;;;;;;;18.58;9.60;;;9.10;99.90;;;;;;5052013;28;20063;-71
2023/11/07 03:34:45;;;;;;;15.05;8.73;;;9.10;99.90;;;;;;5034321;28;20037;-72
2023/11/07 03:37:11;;;;;;;17.63;9.45;;;9.10;99.90;;;;;;5034124;28;20044;-72
2023/11/07 03:39:36;;;;;;;15.40;8.15;;;9.00;99.90;;;;;;5034089;28;20037;-72
2023/11/07 03:42:04;;;;;;;19.70;8.57;;;9.00;99.90;;;;;;5051931;28;20041;-72
2023/11/07 03:44:29;;;;;;;23.10;9.30;;;9.10;99.90;;;;;;5051869;28;20048;-72
2023/11/07 03:46:55;;;;;;;21.30;9.30;;;9.00;99.90;;;;;;5052123;28;20124;-72
2023/11/07 03:49:21;;;;;;;14.02;7.97;;;9.10;99.90;;;;;;5051968;28;20441;-72
2023/11/07 03:51:47;;;;;;;18.42;7.97;;;9.00;99.90;;;;;;5051591;28;20033;-72
2023/11/07 03:54:13;;;;;;;18.23;7.68;;;9.00;99.90;;;;;;5033972;28;20498;-72
2023/11/07 03:56:39;;;;;;;13.45;7.63;;;9.00;99.90;;;;;;5017540;28;20064;-72
2023/11/07 03:59:05;;;;;;;18.00;7.40;;;9.00;99.90;;;;;;5033970;28;20041;-72
2023/11/07 04:01:36;;;;;;;22.45;7.80;;;9.00;99.90;;;;;;5033903;28;20043;-71
2023/11/07 04:04:02;;;;;;;14.68;7.35;;;9.00;99.90;;;;;;5017709;28;20040;-72
2023/11/07 04:06:28;;;;;;;18.95;7.82;;;9.00;99.90;;;;;;5034008;28;20122;-73
2023/11/07 04:08:54;;;;;;;12.85;6.90;;;9.00;99.90;;;;;;5033558;28;20096;-72
2023/11/07 04:11:20;;;;;;;12.40;6.20;;;8.90;99.90;;;;;;5033676;28;20047;-72
2023/11/07 04:13:47;;;;;;;13.65;7.97;;;8.90;99.90;;;;;;5017172;28;20041;-72
2023/11/07 04:16:13;;;;;;;15.77;7.05;;;8.90;99.90;;;;;;5033587;28;20480;-72
2023/11/07 04:18:39;;;;;;;21.83;7.85;;;8.90;99.90;;;;;;5017443;28;20068;-72
2023/11/07 04:21:07;;;;;;;12.95;6.78;;;8.90;99.90;;;;;;5033745;28;20040;-72
2023/11/07 04:23:34;;;;;;;11.50;6.63;;;8.90;99.90;;;;;;5033349;28;20041;-71
2023/11/07 04:25:59;;;;;;;19.65;7.13;;;8.80;99.90;;;;;;5033595;28;20098;-71
2023/11/07 04:28:26;;;;;;;20.85;7.70;;;8.80;99.90;;;;;;5033735;28;20033;-72
2023/11/07 04:30:54;;;;;;;17.70;7.50;;;8.80;99.90;;;;;;5033484;28;20091;-72
2023/11/07 04:33:21;;;;;;;17.60;7.65;;;8.80;99.90;;;;;;5033228;28;20505;-72
2023/11/07 04:35:47;;;;;;;11.55;6.85;;;8.80;99.90;;;;;;5033687;28;20127;-72
2023/11/07 04:38:13;;;;;;;14.38;7.13;;;8.80;99.90;;;;;;5033317;28;20125;-72
2023/11/07 04:40:40;;;;;;;14.82;7.50;;;8.90;99.90;;;;;;5051371;28;20403;-72
2023/11/07 04:43:07;;;;;;;10.95;6.13;;;8.80;99.90;;;;;;5051100;28;20040;-72
2023/11/07 04:45:33;;;;;;;12.57;7.03;;;8.80;99.90;;;;;;5051298;28;20094;-72
2023/11/07 04:47:59;;;;;;;14.43;6.85;;;8.80;99.90;;;;;;5033584;28;20048;-72
2023/11/07 04:50:26;;;;;;;18.70;7.82;;;8.80;99.90;;;;;;5033271;28;20045;-72
2023/11/07 04:52:55;;;;;;;19.15;7.47;;;8.80;99.90;;;;;;5033208;28;20044;-72
2023/11/07 04:55:23;;;;;;;18.60;7.25;;;8.80;99.90;;;;;;5034145;28;20037;-72
2023/11/07 04:57:52;;;;;;;18.95;6.93;;;8.80;99.90;;;;;;5036950;28;20131;-72
2023/11/07 05:00:19;;;;;;;15.18;8.15;;;8.80;99.90;;;;;;5020567;28;20040;-72
2023/11/07 05:02:45;;;;;;;13.38;6.68;;;8.80;99.90;;;;;;5036949;28;20090;-72
2023/11/07 05:05:11;;;;;;;23.65;7.15;;;8.80;99.90;;;;;;5037316;28;20136;-72
2023/11/07 05:07:37;;;;;;;13.75;6.82;;;8.80;99.90;;;;;;5036893;28;20047;-73
2023/11/07 05:10:04;;;;;;;16.33;8.63;;;8.80;99.90;;;;;;5036873;28;20040;-72
2023/11/07 05:12:30;;;;;;;13.60;6.53;;;8.80;99.90;;;;;;5036710;28;20496;-72
2023/11/07 05:14:57;;;;;;;11.60;6.25;;;8.80;99.90;;;;;;5020303;28;20423;-72
2023/11/07 05:17:22;;;;;;;15.20;6.88;;;8.80;99.90;;;;;;5036713;28;20056;-71
2023/11/07 05:19:48;;;;;;;13.98;6.80;;;8.80;99.90;;;;;;5037015;28;20116;-71
2023/11/07 05:22:13;;;;;;;15.90;7.20;;;8.70;99.90;;;;;;5036503;28;20044;-72
2023/11/07 05:24:40;;;;;;;13.95;6.82;;;8.80;99.90;;;;;;5054701;28;20033;-72
2023/11/07 05:27:05;;;;;;;12.48;6.03;;;8.80;99.90;;;;;;5036678;28;20130;-72
2023/11/07 05:29:31;;;;;;;14.60;6.75;;;8.80;99.90;;;;;;5036572;28;20129;-72
2023/11/07 05:31:58;;;;;;;11.82;6.20;;;8.80;99.90;;;;;;5036520;28;20047;-72
2023/11/07 05:34:24;;;;;;;12.85;5.57;;;8.80;99.90;;;;;;5036479;28;20045;-72
2023/11/07 05:36:50;;;;;;;14.68;7.03;;;8.80;99.90;;;;;;5036370;28;20047;-72
2023/11/07 05:39:16;;;;;;;12.10;6.22;;;8.80;99.90;;;;;;5054273;28;20041;-72
2023/11/07 05:41:42;;;;;;;19.95;6.18;;;8.80;99.90;;;;;;5036206;28;20041;-72
2023/11/07 05:44:08;;;;;;;12.20;6.07;;;8.80;99.90;;;;;;5019864;28;20041;-72
2023/11/07 05:46:34;;;;;;;12.82;5.93;;;8.80;99.90;;;;;;5036230;28;20048;-72
2023/11/07 05:49:00;;;;;;;13.00;5.78;;;8.70;99.90;;;;;;5036196;28;20520;-72
2023/11/07 05:51:25;;;;;;;12.77;6.22;;;8.80;99.90;;;;;;5035914;28;20044;-72
2023/11/07 05:53:51;;;;;;;11.48;5.70;;;8.90;99.90;;;;;;5036176;28;20110;-72
2023/11/07 05:56:17;;;;;;;14.85;7.03;;;8.80;99.90;;;;;;5036275;28;20412;-72
2023/11/07 05:58:42;;;;;;;14.05;6.43;;;8.80;99.90;;;;;;5036129;28;20396;-72
2023/11/07 06:01:08;;;;;;;11.77;6.13;;;8.80;99.90;;;;;;5035954;28;20119;-72
2023/11/07 06:03:34;;;;;;;12.60;5.93;;;8.80;99.90;;;;;;5035932;28;20037;-72
2023/11/07 06:05:59;;;;;;;11.57;6.63;;;8.90;99.90;;;;;;5035982;28;20147;-72
2023/11/07 06:08:25;;;;;;;20.40;7.05;;;8.90;99.90;;;;;;5034806;28;20052;-72
2023/11/07 06:10:51;;;;;;;16.02;7.03;;;8.90;99.90;;;;;;5035866;28;20496;-72
2023/11/07 06:13:17;;;;;;;15.00;6.88;;;8.90;99.90;;;;;;5019278;28;20664;-72
2023/11/07 06:15:43;;;;;;;15.02;6.57;;;8.90;99.90;;;;;;5053510;28;20468;-71
2023/11/07 06:18:09;;;;;;;11.70;6.28;;;8.90;99.90;;;;;;5053755;28;20029;-72
2023/11/07 06:20:35;;;;;;;9.65;6.00;;;8.90;99.90;;;;;;5053459;28;20492;-72
2023/11/07 06:23:00;;;;;;;13.90;7.57;;;8.90;99.90;;;;;;5035527;28;20033;-72
2023/11/07 06:25:26;;;;;;;15.73;6.57;;;8.90;99.90;;;;;;5035822;28;20041;-72
2023/11/07 06:27:51;;;;;;;12.15;7.05;;;8.90;99.90;;;;;;5035366;28;20127;-72
2023/11/07 06:30:19;;;;;;;11.68;6.10;;;8.90;99.90;;;;;;5035194;28;20122;-72
2023/11/07 06:32:45;;;;;;;10.57;5.80;;;8.90;99.90;;;;;;5035167;28;20037;-72
2023/11/07 06:35:11;;;;;;;13.10;6.25;;;8.90;99.90;;;;;;5035602;28;20119;-72
2023/11/07 06:37:38;;;;;;;11.90;6.07;;;8.90;99.90;;;;;;5035158;28;20048;-72
2023/11/07 06:40:13;;;;;;;11.75;6.15;;;8.90;99.90;;;;;;5035195;28;20124;-72
2023/11/07 06:42:42;;;;;;;8.63;5.18;;;8.90;99.90;;;;;;5035071;28;20071;-72
2023/11/07 06:45:12;;;;;;;14.57;6.30;;;8.80;99.90;;;;;;5035170;28;20412;-72
2023/11/07 06:47:42;;;;;;;10.30;5.63;;;8.80;99.90;;;;;;5035024;28;20511;-72
2023/11/07 06:50:09;;;;;;;11.82;5.82;;;8.90;99.90;;;;;;5034955;28;20056;-72
2023/11/07 06:52:38;;;;;;;10.77;5.88;;;8.90;99.90;;;;;;5035012;28;20155;-72
2023/11/07 06:55:04;;;;;;;11.82;6.15;;;8.80;99.90;;;;;;5034898;28;20048;-71
2023/11/07 06:57:30;;;;;;;11.35;5.22;;;8.90;99.90;;;;;;5052724;28;20063;-71
2023/11/07 06:59:57;;;;;;;14.00;7.57;;;8.80;99.90;;;;;;5034708;28;20552;-72
2023/11/07 07:02:23;;;;;;;13.13;6.28;;;8.90;99.90;;;;;;5035041;28;20140;-72
2023/11/07 07:04:50;;;;;;;10.50;5.63;;;8.90;99.90;;;;;;5018540;28;20072;-72
2023/11/07 07:07:15;;;;;;;13.55;7.47;;;8.90;99.90;;;;;;5035028;28;20528;-72
2023/11/07 07:09:41;;;;;;;12.45;5.60;;;8.90;99.90;;;;;;5034852;28;20073;-71
2023/11/07 07:12:07;;;;;;;13.70;6.25;;;9.00;99.90;;;;;;5034720;28;20492;-72
2023/11/07 07:14:32;;;;;;;14.95;6.05;;;8.90;99.90;;;;;;5034856;28;20048;-71
2023/11/07 07:17:01;;;;;;;9.93;6.15;;;9.00;99.90;;;;;;5034593;28;20507;-71
2023/11/07 07:19:27;;;;;;;13.68;6.45;;;9.00;99.90;;;;;;5034223;28;20116;-72
2023/11/07 07:21:53;;;;;;;15.15;5.93;;;9.00;99.90;;;;;;5034502;28;20128;-72
2023/11/07 07:24:21;;;;;;;12.38;5.70;;;8.90;99.90;;;;;;5034391;28;20073;-71
2023/11/07 07:26:48;;;;;;;10.73;5.40;;;9.00;99.90;;;;;;5052534;28;20040;-71
2023/11/07 07:29:15;;;;;;;17.90;6.85;;;9.00;99.90;;;;;;5034321;28;20047;-72
2023/11/07 07:31:41;;;;;;;9.45;5.72;;;9.00;99.90;;;;;;5034068;28;20048;-72
2023/11/07 07:34:08;;;;;;;11.40;7.57;;;9.10;99.90;;;;;;5034263;28;20393;-72
2023/11/07 07:36:43;;;;;;;10.20;5.82;;;9.20;99.90;;;;;;5034391;28;20480;-72
2023/11/07 07:39:32;;;;;;;15.63;6.30;;;9.20;99.90;;;;;;5034108;28;20033;-70
2023/11/07 07:42:09;;;;;;;12.38;5.60;;;9.30;99.90;;;;;;5034304;28;20048;-71
2023/11/07 07:44:35;;;;;;;10.23;5.50;;;9.40;99.90;;;;;;5052166;28;20439;-70
2023/11/07 07:47:01;;;;;;;9.68;4.68;;;9.50;99.90;;;;;;5034414;28;20045;-72
2023/11/07 07:49:30;;;;;;;9.80;5.07;;;9.50;99.90;;;;;;5033803;28;20077;-71
2023/11/07 07:52:09;;;;;;;13.80;5.70;;;9.50;99.90;;;;;;5033147;28;20044;-71
2023/11/07 07:54:37;;;;;;;11.73;5.15;;;9.50;99.90;;;;;;5033829;28;20585;-72
2023/11/07 07:57:05;;;;;;;12.38;5.10;;;9.50;99.90;;;;;;5033690;28;20052;-72
2023/11/07 07:59:31;;;;;;;8.07;4.30;;;9.60;99.90;;;;;;5033760;28;20037;-72
2023/11/07 08:01:57;;;;;;;6.38;4.95;;;9.70;99.90;;;;;;5033554;28;20078;-72
2023/11/07 08:04:28;;;;;;;10.90;4.90;;;9.70;99.90;;;;;;5033785;28;20028;-72
2023/11/07 08:06:54;;;;;;;7.57;4.30;;;9.80;99.90;;;;;;5034070;28;20045;-72
2023/11/07 08:09:22;;;;;;;9.88;4.90;;;9.90;99.90;;;;;;5051543;28;20052;-72
2023/11/07 08:11:50;;;;;;;9.57;4.47;;;9.90;99.90;;;;;;5033511;28;20045;-72
2023/11/07 08:14:16;;;;;;;11.27;4.90;;;10.00;99.90;;;;;;5033695;28;20047;-71
2023/11/07 08:16:44;;;;;;;6.32;4.10;;;10.00;99.90;;;;;;5033601;28;20500;-71
2023/11/07 08:19:10;;;;;;;7.07;4.53;;;10.00;99.90;;;;;;5032981;28;20029;-71
2023/11/07 08:21:37;;;;;;;12.40;4.72;;;10.00;99.90;;;;;;5032739;28;20060;-71
2023/11/07 08:24:04;;;;;;;7.80;4.65;;;10.10;99.90;;;;;;5033667;28;20056;-71
2023/11/07 08:26:30;;;;;;;9.25;4.78;;;10.10;99.90;;;;;;5033696;28;20091;-71
2023/11/07 08:28:55;;;;;;;7.05;4.63;;;10.00;99.90;;;;;;5033430;28;20040;-71
2023/11/07 08:31:21;;;;;;;10.40;4.85;;;10.00;99.90;;;;;;5053412;28;20141;-69
2023/11/07 08:33:49;;;;;;;11.35;4.85;;;10.10;99.90;;;;;;5055673;28;20044;-71
2023/11/07 08:36:17;;;;;;;9.73;4.35;;;10.10;99.90;;;;;;5055441;28;20045;-70
2023/11/07 08:38:43;;;;;;;8.40;3.95;;;10.10;99.90;;;;;;5037652;28;20037;-71
2023/11/07 08:41:09;;;;;;;8.93;4.47;;;10.10;99.90;;;;;;5037498;28;20041;-71
2023/11/07 08:43:35;;;;;;;9.20;4.38;;;10.20;99.90;;;;;;5036843;28;20094;-71
2023/11/07 08:46:01;;;;;;;9.55;3.72;;;10.10;99.90;;;;;;5020897;28;20045;-71
2023/11/07 08:48:27;;;;;;;9.13;4.00;;;10.00;99.90;;;;;;5055305;28;20049;-71
2023/11/07 08:50:52;;;;;;;8.10;3.72;;;9.90;99.90;;;;;;5020867;28;20497;-71
2023/11/07 08:53:18;;;;;;;8.45;4.40;;;9.90;99.90;;;;;;5020988;28;20079;-73
2023/11/07 08:55:44;;;;;;;10.43;4.35;;;9.90;99.90;;;;;;5055166;28;20041;-73
2023/11/07 08:58:09;;;;;;;9.98;4.78;;;10.00;99.90;;;;;;5077387;22;20043;-78
2023/11/07 09:00:35;;;;;;;8.48;3.97;;;10.10;99.90;;;;;;5037051;28;20519;-78
2023/11/07 09:03:01;;;;;;;10.38;4.13;;;10.10;99.90;;;;;;5055050;28;20394;-78
2023/11/07 09:05:27;;;;;;;6.13;4.63;;;10.20;99.90;;;;;;5020470;28;20494;-79
2023/11/07 09:07:54;;;;;;;7.38;4.88;;;10.20;99.90;;;;;;5037501;28;20484;-78
2023/11/07 09:10:20;;;;;;;10.10;4.22;;;10.10;99.90;;;;;;5020223;28;20574;-79
2023/11/07 09:12:46;;;;;;;9.55;4.53;;;10.20;99.90;;;;;;5038109;28;20056;-80
2023/11/07 11:07:51;;;;;;;8.63;6.10;;;10.70;99.90;;;;;;5011453;28;20092;-74
2023/11/07 11:10:20;;;;;;;7.60;5.38;;;10.70;99.90;;;;;;4994272;28;20040;-74
2023/11/07 11:12:50;;;;;;;7.78;6.15;;;10.80;99.90;;;;;;4994715;28;20125;-74
2023/11/07 11:15:17;;;;;;;10.02;5.57;;;10.80;99.90;;;;;;4993219;28;20038;-74
2023/11/07 11:18:08;;;;;;;7.47;5.32;;;10.80;99.90;;;;;;5010583;28;20049;-74
2023/11/07 11:20:49;;;;;;;10.60;6.88;;;10.80;99.90;;;;;;5011196;28;20457;-73
2023/11/07 11:27:06;;;;;;;6.28;4.43;;;10.90;99.90;;;;;;4993085;28;20088;-74
2023/11/07 11:29:32;;;;;;;7.75;4.85;;;10.90;99.90;;;;;;4992170;28;20113;-74
2023/11/07 11:32:26;;;;;;;9.18;4.63;;;10.90;99.90;;;;;;4992104;28;20034;-74
2023/11/07 11:34:58;;;;;;;11.57;4.72;;;10.90;99.90;;;;;;4992070;28;20456;-74
2023/11/07 11:37:25;;;;;;;7.72;4.50;;;10.90;99.90;;;;;;4991708;28;20043;-74
2023/11/07 11:39:52;;;;;;;7.47;4.47;;;10.90;99.90;;;;;;4975489;28;20096;-74
2023/11/07 11:42:18;;;;;;;8.00;4.57;;;11.00;99.90;;;;;;4975010;28;20038;-74
2023/11/07 11:44:43;;;;;;;6.50;4.30;;;11.00;99.90;;;;;;4991542;28;20034;-74
2023/11/07 11:48:01;;;;;;;10.98;4.80;;;11.00;99.90;;;;;;4975478;28;20614;-74
2023/11/07 11:50:28;;;;;;;10.60;4.93;;;11.00;99.90;;;;;;4969944;28;20060;-74
2023/11/07 11:52:54;;;;;;;10.55;5.45;;;11.20;99.90;;;;;;5005361;28;20045;-73
2023/11/07 11:55:19;;;;;;;8.10;5.47;;;11.20;99.90;;;;;;5010563;28;20555;-74
2023/11/07 11:58:15;;;;;;;12.32;6.70;;;11.30;99.90;;;;;;4993641;28;20041;-74
2023/11/07 12:00:44;;;;;;;7.82;5.15;;;11.40;99.90;;;;;;5009987;28;20046;-74
2023/11/07 12:03:22;;;;;;;7.07;4.80;;;11.40;99.90;;;;;;5010038;28;20080;-73
2023/11/07 12:06:02;;;;;;;7.18;5.57;;;11.40;99.90;;;;;;5010665;28;20536;-74
2023/11/07 12:08:36;;;;;;;6.47;4.80;;;11.30;99.90;;;;;;5010702;28;20053;-74
2023/11/07 12:11:07;;;;;;;5.75;4.53;;;11.20;99.90;;;;;;5010816;28;20038;-74
2023/11/07 12:13:33;;;;;;;6.18;4.25;;;11.10;99.90;;;;;;5010682;28;20038;-74
2023/11/07 12:16:13;;;;;;;6.05;4.47;;;11.10;99.90;;;;;;5010740;28;20412;-74
2023/11/07 12:18:46;;;;;;;6.78;4.70;;;11.00;99.90;;;;;;5010763;28;20029;-74
2023/11/07 12:21:21;;;;;;;10.30;6.40;;;10.90;99.90;;;;;;5010744;28;20049;-74
2023/11/07 12:23:46;;;;;;;5.20;3.95;;;10.90;99.90;;;;;;4994519;28;20041;-73
2023/11/07 12:26:12;;;;;;;6.20;4.22;;;10.80;99.90;;;;;;4994424;28;20042;-74
2023/11/07 12:28:44;;;;;;;6.10;4.10;;;10.90;99.90;;;;;;5010626;28;20436;-75
2023/11/07 12:31:10;;;;;;;7.85;5.38;;;10.90;99.90;;;;;;5010686;28;20526;-75
2023/11/07 12:33:41;;;;;;;10.90;4.93;;;10.90;99.90;;;;;;5010112;28;20508;-75
2023/11/07 12:36:10;;;;;;;7.88;5.00;;;10.90;99.90;;;;;;5010372;28;20091;-75
2023/11/07 12:38:35;;;;;;;7.55;4.53;;;10.90;99.90;;;;;;4993535;28;20121;-74
2023/11/07 12:41:05;;;;;;;10.93;4.82;;;10.90;99.90;;;;;;5002164;28;20129;-75
2023/11/07 12:43:42;;;;;;;7.10;4.95;;;10.90;99.90;;;;;;5001826;28;20042;-74
2023/11/07 12:46:18;;;;;;;6.28;4.35;;;10.80;99.90;;;;;;5008458;28;20480;-74
2023/11/07 12:48:47;;;;;;;5.88;4.55;;;10.80;99.90;;;;;;5010456;28;20475;-74
2023/11/07 12:51:20;;;;;;;6.47;4.80;;;10.90;99.90;;;;;;5010416;28;20492;-75
2023/11/07 12:53:49;;;;;;;;;;;10.90;99.90;;;;;;5010163;28;20034;-74
2023/11/07 12:56:19;;;;;;;7.85;4.13;;;10.90;99.90;;;;;;4993481;28;19921;-75
2023/11/07 12:58:46;;;;;;;10.77;5.63;;;11.10;99.90;;;;;;4990949;28;20113;-74
2023/11/07 13:01:12;;;;;;;7.72;4.68;;;11.10;99.90;;;;;;5004012;28;20535;-74
2023/11/07 13:03:38;;;;;;;8.43;4.75;;;11.10;99.90;;;;;;5009359;28;20045;-75
2023/11/07 13:06:06;;;;;;;4.82;4.07;;;11.10;99.90;;;;;;5010275;28;20051;-75
2023/11/07 13:08:34;;;;;;;7.53;3.75;;;11.10;99.90;;;;;;5010533;28;20083;-78
2023/11/07 13:11:12;;;;;;;8.27;4.85;;;11.00;99.90;;;;;;4994578;28;20117;-77
2023/11/07 13:13:40;;;;;;;6.47;4.00;;;10.90;99.90;;;;;;5003810;28;20049;-77
2023/11/07 13:16:07;;;;;;;7.55;3.97;;;10.80;99.90;;;;;;5010629;28;20045;-77
2023/11/07 13:18:34;;;;;;;6.47;3.72;;;10.80;99.90;;;;;;5013953;28;20064;-78
2023/11/07 13:20:59;;;;;;;9.10;3.75;;;10.70;99.90;;;;;;5014942;28;20038;-77
2023/11/07 13:23:25;;;;;;;5.97;3.25;;;10.70;99.90;;;;;;5014215;28;20048;-77
2023/11/07 13:25:50;;;;;;;7.50;3.53;;;10.60;99.90;;;;;;5014250;28;20033;-78
2023/11/07 13:28:16;;;;;;;4.90;3.20;;;10.60;99.90;;;;;;5014250;28;20096;-77
2023/11/07 13:30:42;;;;;;;7.13;3.28;;;10.60;99.90;;;;;;5014468;28;20041;-77
2023/11/07 13:33:07;;;;;;;4.07;3.15;;;10.60;99.90;;;;;;5014249;28;20044;-78
2023/11/07 13:35:37;;;;;;;5.93;2.50;;;10.50;99.90;;;;;;4998513;28;20040;-77
2023/11/07 13:38:03;;;;;;;6.05;3.00;;;10.50;99.90;;;;;;5014259;28;20054;-77
2023/11/07 13:40:28;;;;;;;4.47;2.13;;;10.50;99.90;;;;;;5015111;28;20263;-78
2023/11/07 13:42:54;;;;;;;5.03;2.05;;;10.50;99.90;;;;;;5014944;28;20128;-78
2023/11/07 13:45:20;;;;;;;3.25;1.60;;;10.40;99.90;;;;;;5015124;28;20038;-74
2023/11/07 13:47:46;;;;;;;4.10;1.33;;;10.50;99.90;;;;;;5013198;28;20505;-74
2023/11/07 13:50:11;;;;;;;3.42;1.25;;;10.40;99.90;;;;;;4996699;28;20049;-75
2023/11/07 13:52:40;;;;;;;1.60;1.08;;;10.40;99.90;;;;;;5012893;28;20049;-77
2023/11/07 13:55:06;;;;;;;4.85;1.08;;;10.40;99.90;;;;;;5013603;28;20048;-75
2023/11/07 13:57:32;;;;;;;2.22;1.55;;;10.50;99.90;;;;;;5013310;28;20485;-74
2023/11/07 13:59:58;;;;;;;3.33;0.95;;;10.50;99.90;;;;;;5013150;28;20085;-75
2023/11/07 14:02:25;;;;;;;3.60;0.98;;;10.60;99.90;;;;;;5012144;28;20033;-75
2023/11/07 14:04:50;;;;;;;2.33;0.82;;;10.70;99.90;;;;;;5012642;28;20049;-74
2023/11/07 14:07:17;;;;;;;3.13;1.27;;;10.80;99.90;;;;;;5012623;28;20038;-75
2023/11/07 14:09:43;;;;;;;3.35;1.67;;;10.80;99.90;;;;;;5013199;28;20164;-75
2023/11/07 14:12:08;;;;;;;5.50;2.08;;;10.90;99.90;;;;;;5013070;28;20095;-75
2023/11/07 14:14:34;;;;;;;4.97;1.80;;;10.90;99.90;;;;;;5012541;28;20045;-75
2023/11/07 14:17:00;;;;;;;3.55;1.45;;;11.00;99.90;;;;;;5012784;28;20069;-75
2023/11/07 14:19:28;;;;;;;5.55;2.20;;;11.00;99.90;;;;;;5014091;28;20127;-75
2023/11/07 14:21:53;;;;;;;6.18;2.60;;;11.10;99.90;;;;;;5012756;28;20046;-74
2023/11/07 14:24:19;;;;;;;5.38;2.35;;;11.00;99.90;;;;;;5013559;28;20116;-74
2023/11/07 14:26:46;;;;;;;5.13;2.45;;;11.10;99.90;;;;;;5014000;28;20080;-75
2023/11/07 14:29:11;;;;;;;6.07;3.25;;;11.10;99.90;;;;;;5011535;28;20100;-75
2023/11/07 14:31:37;;;;;;;6.43;2.97;;;11.10;99.90;;;;;;5012507;28;20046;-74
2023/11/07 14:34:03;;;;;;;5.63;2.75;;;11.10;99.90;;;;;;5013608;28;20037;-74
2023/11/07 14:36:29;;;;;;;6.40;3.17;;;11.10;99.90;;;;;;5012466;28;20038;-74
2023/11/07 14:38:54;;;;;;;4.85;2.70;;;11.10;99.90;;;;;;4996102;28;20041;-74
2023/11/07 14:41:22;;;;;;;5.97;2.80;;;11.00;99.90;;;;;;5013377;28;20029;-75